Time;durP1;ratioP1;P1;durP2;ratioP2;P2;SDS_P1;SDS_P2;PMS_P1;PMS_P2;Temp;Humidity;BMP_temperature;BMP_pressure;BME280_temperature;BME280_humidity;BME280_pressure;Samples;Min_cycle;Max_cycle;Signal;HPM_P1;HPM_P2
2023/05/31 00:00:47;;;;;;;8.98;4.05;;;;;;;;;;5010385;28;20361;-73
2023/05/31 00:03:13;;;;;;;10.60;4.18;;;;;;;;;;5011081;28;20026;-72
2023/05/31 00:05:40;;;;;;;10.02;4.20;;;;;;;;;;5012804;28;20022;-73
2023/05/31 00:08:06;;;;;;;15.80;4.60;;;;;;;;;;5012573;28;20026;-72
2023/05/31 00:10:32;;;;;;;9.45;4.10;;;;;;;;;;5012034;28;20411;-72
2023/05/31 00:12:58;;;;;;;13.77;4.60;;;;;;;;;;5011773;28;20100;-73
2023/05/31 00:15:24;;;;;;;17.15;4.63;;;;;;;;;;5011749;28;20026;-72
2023/05/31 00:17:50;;;;;;;10.63;4.15;;;;;;;;;;5011980;28;20486;-72
2023/05/31 00:20:16;;;;;;;10.93;4.40;;;;;;;;;;5015590;28;20037;-73
2023/05/31 00:22:42;;;;;;;11.48;4.25;;;;;;;;;;5016048;28;20042;-73
2023/05/31 00:25:08;;;;;;;14.13;5.00;;;;;;;;;;5018492;28;20034;-72
2023/05/31 00:27:34;;;;;;;9.13;4.20;;;;;;;;;;5018724;28;20033;-71
2023/05/31 00:30:00;;;;;;;10.23;3.85;;;;;;;;;;5016942;28;20026;-72
2023/05/31 00:32:26;;;;;;;11.20;4.68;;;;;;;;;;5016903;28;20390;-72
2023/05/31 00:34:52;;;;;;;14.27;4.78;;;;;;;;;;5016905;28;20034;-72
2023/05/31 00:37:18;;;;;;;11.95;4.90;;;;;;;;;;5017159;28;20565;-72
2023/05/31 00:39:44;;;;;;;13.00;4.53;;;;;;;;;;5016931;28;20045;-73
2023/05/31 00:42:10;;;;;;;11.15;4.80;;;;;;;;;;5017127;28;20370;-72
2023/05/31 00:44:36;;;;;;;11.40;4.93;;;;;;;;;;5016982;28;20108;-73
2023/05/31 00:47:02;;;;;;;15.00;4.50;;;;;;;;;;5016735;28;20479;-73
2023/05/31 00:49:28;;;;;;;16.40;5.28;;;;;;;;;;5017321;28;20386;-72
2023/05/31 00:51:55;;;;;;;10.70;4.88;;;;;;;;;;5016940;28;20097;-74
2023/05/31 00:54:22;;;;;;;14.68;5.10;;;;;;;;;;5017428;28;20061;-72
2023/05/31 00:56:49;;;;;;;14.02;4.60;;;;;;;;;;5016547;28;20475;-73
2023/05/31 00:59:16;;;;;;;13.48;5.15;;;;;;;;;;5017079;28;20411;-74
2023/05/31 01:01:42;;;;;;;20.35;5.40;;;;;;;;;;5016564;28;20079;-72
2023/05/31 01:04:17;;;;;;;16.50;5.38;;;;;;;;;;5017014;28;20033;-73
2023/05/31 01:06:43;;;;;;;17.48;5.57;;;;;;;;;;5016885;28;20049;-72
2023/05/31 01:09:09;;;;;;;10.07;4.90;;;;;;;;;;5016940;28;20029;-72
2023/05/31 01:11:54;;;;;;;12.45;4.80;;;;;;;;;;5017003;28;20020;-72
2023/05/31 01:14:20;;;;;;;13.93;5.60;;;;;;;;;;5014887;28;20022;-73
2023/05/31 01:16:48;;;;;;;13.32;4.97;;;;;;;;;;5015008;28;20032;-72
2023/05/31 01:19:21;;;;;;;15.98;6.43;;;;;;;;;;5014612;28;20026;-73
2023/05/31 01:22:02;;;;;;;16.08;5.22;;;;;;;;;;5014886;28;20082;-73
2023/05/31 01:24:37;;;;;;;12.02;5.32;;;;;;;;;;5014728;28;20029;-73
2023/05/31 01:27:05;;;;;;;12.90;5.20;;;;;;;;;;5014918;28;20368;-72
2023/05/31 01:29:31;;;;;;;15.25;5.85;;;;;;;;;;5014747;28;20475;-73
2023/05/31 01:31:59;;;;;;;16.35;6.00;;;;;;;;;;5013805;28;20030;-72
2023/05/31 01:34:25;;;;;;;13.60;5.60;;;;;;;;;;5014473;28;20026;-72
2023/05/31 01:36:51;;;;;;;13.85;5.75;;;;;;;;;;5014600;28;20104;-72
2023/05/31 01:39:17;;;;;;;16.48;5.82;;;;;;;;;;5014404;28;20041;-73
2023/05/31 01:41:45;;;;;;;11.60;5.43;;;;;;;;;;5014851;28;20058;-72
2023/05/31 01:44:13;;;;;;;17.63;6.57;;;;;;;;;;5014360;28;20041;-72
2023/05/31 01:46:40;;;;;;;13.23;6.20;;;;;;;;;;5014345;28;20056;-73
2023/05/31 01:49:06;;;;;;;17.88;7.68;;;;;;;;;;5014304;28;20026;-72
2023/05/31 01:51:33;;;;;;;18.48;6.75;;;;;;;;;;5013938;28;20071;-71
2023/05/31 01:54:00;;;;;;;14.50;7.18;;;;;;;;;;5012678;28;20057;-72
2023/05/31 01:56:28;;;;;;;17.27;7.22;;;;;;;;;;5029555;28;20117;-72
2023/05/31 01:58:55;;;;;;;19.33;6.32;;;;;;;;;;5014750;28;20026;-72
2023/05/31 02:01:21;;;;;;;16.65;6.40;;;;;;;;;;5015007;28;20119;-72
2023/05/31 02:03:49;;;;;;;15.23;5.28;;;;;;;;;;5013355;28;20125;-72
2023/05/31 02:06:15;;;;;;;16.17;6.75;;;;;;;;;;5013879;28;20049;-72
2023/05/31 02:08:41;;;;;;;19.92;7.20;;;;;;;;;;5014073;28;20025;-72
2023/05/31 02:11:07;;;;;;;24.27;6.72;;;;;;;;;;5014646;28;20026;-72
2023/05/31 02:13:34;;;;;;;15.35;6.60;;;;;;;;;;5013308;28;20104;-72
2023/05/31 02:16:00;;;;;;;14.93;7.18;;;;;;;;;;5014866;28;20022;-72
2023/05/31 02:18:26;;;;;;;16.80;7.20;;;;;;;;;;5013666;28;20051;-73
2023/05/31 02:20:53;;;;;;;17.35;7.47;;;;;;;;;;5013628;28;20022;-72
2023/05/31 02:23:19;;;;;;;17.30;7.32;;;;;;;;;;5014284;28;20414;-72
2023/05/31 02:25:46;;;;;;;12.45;6.22;;;;;;;;;;5012754;28;20064;-72
2023/05/31 02:28:12;;;;;;;16.95;6.55;;;;;;;;;;5014300;28;20034;-73
2023/05/31 02:30:38;;;;;;;15.63;6.18;;;;;;;;;;5014395;28;20036;-72
2023/05/31 02:33:04;;;;;;;13.10;5.60;;;;;;;;;;5014303;28;20114;-71
2023/05/31 02:35:30;;;;;;;15.25;6.68;;;;;;;;;;5015471;28;20057;-72
2023/05/31 02:37:56;;;;;;;15.55;6.38;;;;;;;;;;5014454;28;20057;-71
2023/05/31 02:40:22;;;;;;;17.08;6.70;;;;;;;;;;5012386;28;20069;-71
2023/05/31 02:42:48;;;;;;;21.80;8.52;;;;;;;;;;5011745;28;20112;-72
2023/05/31 02:45:14;;;;;;;15.32;6.75;;;;;;;;;;5011858;28;20041;-72
2023/05/31 02:47:40;;;;;;;15.48;7.15;;;;;;;;;;5011846;28;20026;-72
2023/05/31 02:50:10;;;;;;;16.67;6.60;;;;;;;;;;5011336;28;20696;-73
2023/05/31 02:52:37;;;;;;;41.13;16.58;;;;;;;;;;5011881;28;20045;-72
2023/05/31 02:55:03;;;;;;;21.65;9.77;;;;;;;;;;5012166;28;20151;-72
2023/05/31 02:57:29;;;;;;;11.77;6.40;;;;;;;;;;5013030;28;20032;-72
2023/05/31 02:59:57;;;;;;;13.38;5.93;;;;;;;;;;5011518;28;20029;-72
2023/05/31 03:02:24;;;;;;;13.52;5.75;;;;;;;;;;5011171;28;20034;-72
2023/05/31 03:04:50;;;;;;;16.13;6.38;;;;;;;;;;5010742;28;20034;-71
2023/05/31 03:07:16;;;;;;;16.77;7.05;;;;;;;;;;5013166;28;20050;-71
2023/05/31 03:09:42;;;;;;;15.60;6.57;;;;;;;;;;5013780;28;20113;-72
2023/05/31 03:12:08;;;;;;;11.27;6.07;;;;;;;;;;5013300;28;20022;-71
2023/05/31 03:14:34;;;;;;;15.52;6.15;;;;;;;;;;5014464;28;20104;-72
2023/05/31 03:17:00;;;;;;;12.73;6.03;;;;;;;;;;5011574;28;20022;-72
2023/05/31 03:19:27;;;;;;;21.85;8.20;;;;;;;;;;5011673;28;20105;-71
2023/05/31 03:21:53;;;;;;;11.77;7.18;;;;;;;;;;5011204;28;20030;-73
2023/05/31 03:24:19;;;;;;;13.35;6.63;;;;;;;;;;5011265;28;20387;-72
2023/05/31 03:26:45;;;;;;;16.33;6.18;;;;;;;;;;5011148;28;20022;-73
2023/05/31 03:29:11;;;;;;;15.13;6.72;;;;;;;;;;5010696;28;20048;-73
2023/05/31 03:31:37;;;;;;;18.58;8.30;;;;;;;;;;5011285;28;20105;-73
2023/05/31 03:34:03;;;;;;;17.23;8.50;;;;;;;;;;5010583;28;20022;-73
2023/05/31 03:36:29;;;;;;;15.95;7.65;;;;;;;;;;5011542;28;20038;-75
2023/05/31 03:38:55;;;;;;;12.30;7.13;;;;;;;;;;5011935;28;20108;-73
2023/05/31 03:41:21;;;;;;;15.93;6.38;;;;;;;;;;5012179;28;20029;-73
2023/05/31 03:43:47;;;;;;;13.82;6.57;;;;;;;;;;5011640;28;20025;-72
2023/05/31 03:46:13;;;;;;;13.13;6.30;;;;;;;;;;5012016;28;20029;-73
2023/05/31 03:48:39;;;;;;;18.88;7.68;;;;;;;;;;5011995;28;20397;-74
2023/05/31 03:51:05;;;;;;;19.38;8.90;;;;;;;;;;5012017;28;20042;-72
2023/05/31 03:53:31;;;;;;;16.05;7.35;;;;;;;;;;5011625;28;20056;-73
2023/05/31 03:55:57;;;;;;;15.20;7.28;;;;;;;;;;5012769;28;20048;-72
2023/05/31 03:58:24;;;;;;;17.00;7.70;;;;;;;;;;5011870;28;20018;-72
2023/05/31 04:00:50;;;;;;;22.27;7.97;;;;;;;;;;5011761;28;20025;-73
2023/05/31 04:03:17;;;;;;;14.55;7.65;;;;;;;;;;5012541;28;20018;-72
2023/05/31 04:05:43;;;;;;;17.35;7.90;;;;;;;;;;5012009;28;20475;-72
2023/05/31 04:08:10;;;;;;;15.40;8.48;;;;;;;;;;5013416;28;20431;-73
2023/05/31 04:10:36;;;;;;;18.58;9.48;;;;;;;;;;5011562;28;20050;-73
2023/05/31 04:13:02;;;;;;;18.50;9.63;;;;;;;;;;5014094;28;20030;-72
2023/05/31 04:15:28;;;;;;;15.70;8.02;;;;;;;;;;5015044;28;20070;-72
2023/05/31 04:17:55;;;;;;;14.18;6.85;;;;;;;;;;5013166;28;20050;-72
2023/05/31 04:20:21;;;;;;;14.15;6.85;;;;;;;;;;5014116;28;20029;-72
2023/05/31 04:22:47;;;;;;;16.92;7.95;;;;;;;;;;5013313;28;20026;-72
2023/05/31 04:25:13;;;;;;;22.35;8.85;;;;;;;;;;5012609;28;20034;-73
2023/05/31 04:27:40;;;;;;;16.90;7.72;;;;;;;;;;5011395;28;20068;-74
2023/05/31 04:30:09;;;;;;;18.17;7.88;;;;;;;;;;5011430;28;20467;-75
2023/05/31 04:32:35;;;;;;;18.95;9.07;;;;;;;;;;5012592;28;20026;-72
2023/05/31 04:35:03;;;;;;;23.67;9.63;;;;;;;;;;5011822;28;20037;-72
2023/05/31 04:37:29;;;;;;;17.23;8.82;;;;;;;;;;5011082;28;20030;-73
2023/05/31 04:39:57;;;;;;;15.85;8.25;;;;;;;;;;5011711;28;20029;-76
2023/05/31 04:42:26;;;;;;;15.23;7.90;;;;;;;;;;5014418;28;20144;-75
2023/05/31 04:44:57;;;;;;;15.85;9.23;;;;;;;;;;5009760;28;20390;-75
2023/05/31 04:47:24;;;;;;;15.95;8.73;;;;;;;;;;5011472;28;20030;-76
2023/05/31 04:49:50;;;;;;;22.55;10.35;;;;;;;;;;5014496;28;20117;-76
2023/05/31 04:52:17;;;;;;;19.40;9.20;;;;;;;;;;5015796;28;20025;-75
2023/05/31 04:54:43;;;;;;;18.83;9.07;;;;;;;;;;5016065;28;20038;-75
2023/05/31 04:57:09;;;;;;;13.20;8.13;;;;;;;;;;5015387;28;20405;-73
2023/05/31 04:59:36;;;;;;;17.58;9.15;;;;;;;;;;5014364;28;20056;-73
2023/05/31 05:02:02;;;;;;;19.65;9.57;;;;;;;;;;5012141;28;20380;-72
2023/05/31 05:04:28;;;;;;;18.25;8.32;;;;;;;;;;5012947;28;20044;-74
2023/05/31 05:06:54;;;;;;;21.20;9.35;;;;;;;;;;5014673;28;20029;-73
2023/05/31 05:09:20;;;;;;;20.38;9.82;;;;;;;;;;5015316;28;20167;-75
2023/05/31 05:11:46;;;;;;;21.17;10.15;;;;;;;;;;5015005;28;20033;-72
2023/05/31 05:14:12;;;;;;;21.27;9.68;;;;;;;;;;5014698;28;20100;-72
2023/05/31 05:16:38;;;;;;;18.30;8.65;;;;;;;;;;5015061;28;20044;-72
2023/05/31 05:19:04;;;;;;;24.20;9.57;;;;;;;;;;5032720;28;20034;-73
2023/05/31 05:21:30;;;;;;;25.75;9.20;;;;;;;;;;5032582;28;20045;-72
2023/05/31 05:23:57;;;;;;;21.25;9.20;;;;;;;;;;5016712;28;20483;-72
2023/05/31 05:26:23;;;;;;;18.52;9.38;;;;;;;;;;5016920;28;20077;-78
2023/05/31 05:28:49;;;;;;;18.65;8.55;;;;;;;;;;5016886;28;20026;-74
2023/05/31 05:31:15;;;;;;;16.65;9.02;;;;;;;;;;5017951;28;20036;-74
2023/05/31 05:33:41;;;;;;;19.67;9.27;;;;;;;;;;5017211;28;20482;-81
2023/05/31 05:36:07;;;;;;;22.65;8.93;;;;;;;;;;5031941;28;20018;-74
2023/05/31 05:38:33;;;;;;;19.88;8.82;;;;;;;;;;5014740;28;20026;-74
2023/05/31 05:40:59;;;;;;;27.67;11.30;;;;;;;;;;5029475;28;20109;-75
2023/05/31 05:43:25;;;;;;;16.55;9.18;;;;;;;;;;5014533;28;20519;-73
2023/05/31 05:45:51;;;;;;;20.00;9.15;;;;;;;;;;5014005;28;20471;-74
2023/05/31 05:48:17;;;;;;;20.15;9.73;;;;;;;;;;5012236;28;20033;-75
2023/05/31 05:50:43;;;;;;;24.23;8.60;;;;;;;;;;5008834;28;20414;-75
2023/05/31 05:53:09;;;;;;;19.63;8.10;;;;;;;;;;5013392;28;20022;-75
2023/05/31 05:55:35;;;;;;;20.27;8.82;;;;;;;;;;5012657;28;20029;-73
2023/05/31 05:58:01;;;;;;;14.68;8.10;;;;;;;;;;5013847;28;20480;-74
2023/05/31 06:00:28;;;;;;;26.65;10.18;;;;;;;;;;5013603;28;20040;-74
2023/05/31 06:02:54;;;;;;;23.15;9.40;;;;;;;;;;5014367;28;20029;-73
2023/05/31 06:05:25;;;;;;;27.27;10.90;;;;;;;;;;5017801;28;20434;-73
2023/05/31 06:07:54;;;;;;;16.77;8.35;;;;;;;;;;5007162;28;20052;-73
2023/05/31 06:10:20;;;;;;;19.40;7.93;;;;;;;;;;5013483;28;20116;-73
2023/05/31 06:12:46;;;;;;;24.48;10.27;;;;;;;;;;5012422;28;20057;-73
2023/05/31 06:15:12;;;;;;;21.15;7.97;;;;;;;;;;5013687;28;20123;-72
2023/05/31 06:17:39;;;;;;;19.48;7.95;;;;;;;;;;5010923;28;20133;-74
2023/05/31 06:20:06;;;;;;;21.27;8.23;;;;;;;;;;5013664;28;20050;-72
2023/05/31 06:22:32;;;;;;;20.92;8.20;;;;;;;;;;5022237;28;20037;-72
2023/05/31 06:24:58;;;;;;;19.08;8.70;;;;;;;;;;5033286;28;20474;-73
2023/05/31 06:27:25;;;;;;;19.42;8.48;;;;;;;;;;5033059;28;20029;-72
2023/05/31 06:29:57;;;;;;;24.05;8.40;;;;;;;;;;5033165;28;20099;-72
2023/05/31 06:32:23;;;;;;;21.80;7.95;;;;;;;;;;5032363;28;20064;-72
2023/05/31 06:34:50;;;;;;;16.33;7.05;;;;;;;;;;5032767;28;20438;-71
2023/05/31 06:37:16;;;;;;;21.80;7.85;;;;;;;;;;5032797;28;20048;-73
2023/05/31 06:39:42;;;;;;;14.85;6.80;;;;;;;;;;5032757;28;20033;-71
2023/05/31 06:42:08;;;;;;;14.02;5.85;;;;;;;;;;5031777;28;20036;-71
2023/05/31 06:44:34;;;;;;;13.50;5.80;;;;;;;;;;5033044;28;20040;-72
2023/05/31 06:47:00;;;;;;;15.85;6.40;;;;;;;;;;5032304;28;20138;-72
2023/05/31 06:49:27;;;;;;;16.40;6.15;;;;;;;;;;5034886;28;20030;-73
2023/05/31 06:51:53;;;;;;;18.80;6.88;;;;;;;;;;5033917;28;20049;-72
2023/05/31 06:54:19;;;;;;;13.25;5.60;;;;;;;;;;5033774;28;20037;-73
2023/05/31 06:56:45;;;;;;;15.57;5.13;;;;;;;;;;5034318;28;20074;-74
2023/05/31 06:59:11;;;;;;;13.32;4.85;;;;;;;;;;5033449;28;20105;-72
2023/05/31 07:01:37;;;;;;;18.15;6.35;;;;;;;;;;5033042;28;20089;-72
2023/05/31 07:04:03;;;;;;;19.83;6.45;;;;;;;;;;5032816;28;20036;-72
2023/05/31 07:06:29;;;;;;;12.45;4.90;;;;;;;;;;5032947;28;20364;-73
2023/05/31 07:08:55;;;;;;;18.60;5.55;;;;;;;;;;5035088;28;20022;-73
2023/05/31 07:11:21;;;;;;;14.77;5.82;;;;;;;;;;5033922;28;20026;-73
2023/05/31 07:13:48;;;;;;;12.65;4.47;;;;;;;;;;5030685;28;20101;-73
2023/05/31 07:16:14;;;;;;;16.20;3.78;;;;;;;;;;5031092;28;20029;-73
2023/05/31 07:18:40;;;;;;;10.18;3.95;;;;;;;;;;5031291;28;20035;-72
2023/05/31 07:21:08;;;;;;;12.75;3.75;;;;;;;;;;5030546;28;20068;-73
2023/05/31 07:23:34;;;;;;;12.32;3.38;;;;;;;;;;5030639;28;20026;-73
2023/05/31 07:26:02;;;;;;;13.52;3.03;;;;;;;;;;5031007;28;20479;-73
2023/05/31 07:28:28;;;;;;;9.50;4.07;;;;;;;;;;5030411;28;20021;-77
2023/05/31 07:30:54;;;;;;;15.85;5.00;;;;;;;;;;5030924;28;20021;-74
2023/05/31 07:33:20;;;;;;;13.88;4.10;;;;;;;;;;5030835;28;20018;-73
2023/05/31 07:35:46;;;;;;;12.18;3.47;;;;;;;;;;5031024;28;20017;-73
2023/05/31 07:38:12;;;;;;;11.55;4.18;;;;;;;;;;5030765;28;20029;-73
2023/05/31 07:40:38;;;;;;;8.95;3.83;;;;;;;;;;5031048;28;20464;-73
2023/05/31 07:43:04;;;;;;;10.40;4.30;;;;;;;;;;5030829;28;20018;-72
2023/05/31 07:45:30;;;;;;;13.05;4.53;;;;;;;;;;5030502;28;20095;-71
2023/05/31 07:47:57;;;;;;;14.82;4.72;;;;;;;;;;5030579;28;20475;-74
2023/05/31 07:50:23;;;;;;;17.23;4.90;;;;;;;;;;5030894;28;20036;-72
2023/05/31 07:52:49;;;;;;;14.93;4.35;;;;;;;;;;5031164;28;20029;-72
2023/05/31 07:55:18;;;;;;;14.20;4.47;;;;;;;;;;5031936;28;20109;-72
2023/05/31 07:57:44;;;;;;;16.75;4.20;;;;;;;;;;5031587;28;20022;-73
2023/05/31 08:00:13;;;;;;;15.43;3.53;;;;;;;;;;5031590;28;20146;-72
2023/05/31 08:02:39;;;;;;;16.27;3.60;;;;;;;;;;5031633;28;20418;-73
2023/05/31 08:05:05;;;;;;;16.50;3.78;;;;;;;;;;5031327;28;20095;-73
2023/05/31 08:07:31;;;;;;;15.40;3.28;;;;;;;;;;5031519;28;20013;-73
2023/05/31 08:09:58;;;;;;;16.85;3.65;;;;;;;;;;5030764;28;20040;-75
2023/05/31 08:12:24;;;;;;;13.20;3.38;;;;;;;;;;5032095;28;20018;-72
2023/05/31 08:14:50;;;;;;;14.23;3.75;;;;;;;;;;5032672;28;20029;-72
2023/05/31 08:17:16;;;;;;;15.55;4.22;;;;;;;;;;5031532;28;20391;-72
2023/05/31 08:19:42;;;;;;;19.77;7.47;;;;;;;;;;5031601;28;20085;-72
2023/05/31 08:22:08;;;;;;;19.67;4.65;;;;;;;;;;5031114;28;20021;-72
2023/05/31 08:24:34;;;;;;;10.13;3.33;;;;;;;;;;5031279;28;20033;-71
2023/05/31 08:27:01;;;;;;;9.65;3.15;;;;;;;;;;5030956;28;20493;-72
2023/05/31 08:29:28;;;;;;;16.73;3.35;;;;;;;;;;5031389;28;20041;-71
2023/05/31 08:31:55;;;;;;;11.75;3.10;;;;;;;;;;5030734;28;20014;-72
2023/05/31 08:34:21;;;;;;;22.13;3.80;;;;;;;;;;5031705;28;20513;-71
2023/05/31 08:36:47;;;;;;;13.02;3.35;;;;;;;;;;5031588;28;20030;-72
2023/05/31 08:39:13;;;;;;;16.83;3.10;;;;;;;;;;5032314;28;20022;-71
2023/05/31 08:41:53;;;;;;;16.88;3.70;;;;;;;;;;5035357;28;20487;-72
2023/05/31 08:44:21;;;;;;;9.65;2.90;;;;;;;;;;5035536;28;20104;-71
2023/05/31 08:46:48;;;;;;;18.08;3.75;;;;;;;;;;5034941;28;20378;-71
2023/05/31 08:49:16;;;;;;;17.80;3.47;;;;;;;;;;5035512;28;20025;-72
2023/05/31 08:51:44;;;;;;;14.00;3.63;;;;;;;;;;5036119;28;20026;-72
2023/05/31 08:54:10;;;;;;;15.00;3.33;;;;;;;;;;5035215;28;20108;-72
2023/05/31 08:56:38;;;;;;;13.77;3.40;;;;;;;;;;5034525;28;20544;-72
2023/05/31 08:59:09;;;;;;;15.80;3.33;;;;;;;;;;5037186;28;20037;-72
2023/05/31 09:01:36;;;;;;;21.77;4.03;;;;;;;;;;5036778;28;20049;-72
2023/05/31 09:04:04;;;;;;;10.20;3.20;;;;;;;;;;5037697;28;20083;-71
2023/05/31 09:06:30;;;;;;;15.18;4.90;;;;;;;;;;5039978;28;20092;-72
2023/05/31 09:08:56;;;;;;;21.60;3.42;;;;;;;;;;5039443;28;20071;-74
2023/05/31 09:11:23;;;;;;;17.08;3.53;;;;;;;;;;5038784;28;20035;-72
2023/05/31 09:13:49;;;;;;;10.73;2.97;;;;;;;;;;5036762;28;20446;-72
2023/05/31 09:16:15;;;;;;;15.38;3.33;;;;;;;;;;5036857;28;20030;-71
2023/05/31 09:18:41;;;;;;;16.50;3.42;;;;;;;;;;5037813;28;20037;-72
2023/05/31 09:21:12;;;;;;;14.48;3.45;;;;;;;;;;5038729;28;20462;-73
2023/05/31 09:23:38;;;;;;;13.82;4.00;;;;;;;;;;5035886;28;20032;-72
2023/05/31 09:26:08;;;;;;;11.27;4.28;;;;;;;;;;5036121;28;20029;-72
2023/05/31 09:28:34;;;;;;;11.98;3.65;;;;;;;;;;5038607;28;20477;-75
2023/05/31 09:31:06;;;;;;;13.45;3.47;;;;;;;;;;5035770;28;20040;-72
2023/05/31 09:33:40;;;;;;;12.18;3.17;;;;;;;;;;5035899;28;20025;-71
2023/05/31 09:36:06;;;;;;;15.15;3.08;;;;;;;;;;5036484;28;20018;-75
2023/05/31 09:38:33;;;;;;;18.02;3.10;;;;;;;;;;5036510;28;20052;-73
2023/05/31 09:41:15;;;;;;;9.60;2.92;;;;;;;;;;5037232;28;20045;-72
2023/05/31 09:43:45;;;;;;;16.50;2.97;;;;;;;;;;5034631;28;20036;-72
2023/05/31 09:46:15;;;;;;;13.73;3.22;;;;;;;;;;5035373;28;20251;-71
2023/05/31 09:48:41;;;;;;;8.18;2.72;;;;;;;;;;5033294;28;20075;-72
2023/05/31 09:51:08;;;;;;;16.40;4.45;;;;;;;;;;5032977;28;20233;-71
2023/05/31 09:53:38;;;;;;;9.52;3.28;;;;;;;;;;5033681;28;20021;-71
2023/05/31 09:56:08;;;;;;;9.77;3.17;;;;;;;;;;5033903;28;20025;-72
2023/05/31 09:58:34;;;;;;;13.93;3.15;;;;;;;;;;5034172;28;20049;-71
2023/05/31 10:01:01;;;;;;;9.05;2.75;;;;;;;;;;5033750;28;20029;-72
2023/05/31 10:03:28;;;;;;;11.43;3.92;;;;;;;;;;5033672;28;20021;-71
2023/05/31 10:05:54;;;;;;;9.55;3.47;;;;;;;;;;5033705;28;20114;-72
2023/05/31 10:08:22;;;;;;;12.10;3.15;;;;;;;;;;5033612;28;20021;-72
2023/05/31 10:10:48;;;;;;;22.38;6.10;;;;;;;;;;5034484;28;20101;-72
2023/05/31 10:13:16;;;;;;;10.63;3.38;;;;;;;;;;5033790;28;20104;-73
2023/05/31 10:15:43;;;;;;;11.50;2.90;;;;;;;;;;5033682;28;20034;-73
2023/05/31 10:18:15;;;;;;;10.05;3.08;;;;;;;;;;5033387;28;20037;-72
2023/05/31 10:20:48;;;;;;;12.93;2.90;;;;;;;;;;5033439;28;20490;-71
2023/05/31 10:23:22;;;;;;;9.70;2.70;;;;;;;;;;5033134;28;20025;-72
2023/05/31 10:25:51;;;;;;;11.10;2.42;;;;;;;;;;5033461;28;20056;-73
2023/05/31 10:28:18;;;;;;;9.48;2.33;;;;;;;;;;5033322;28;20068;-74
2023/05/31 10:30:47;;;;;;;12.98;2.70;;;;;;;;;;5033117;28;20075;-72
2023/05/31 10:33:15;;;;;;;10.07;2.80;;;;;;;;;;5032629;28;20025;-73
2023/05/31 10:35:41;;;;;;;10.18;2.45;;;;;;;;;;5033373;28;20053;-73
2023/05/31 10:38:07;;;;;;;10.07;3.13;;;;;;;;;;5033188;28;20025;-73
2023/05/31 10:40:51;;;;;;;11.00;3.30;;;;;;;;;;5033221;28;20398;-74
2023/05/31 10:43:38;;;;;;;8.43;2.72;;;;;;;;;;5032735;28;20025;-72
2023/05/31 10:46:10;;;;;;;9.25;2.63;;;;;;;;;;5032904;28;20075;-73
2023/05/31 10:48:41;;;;;;;14.35;5.10;;;;;;;;;;5032998;28;20030;-73
2023/05/31 10:51:09;;;;;;;12.10;3.63;;;;;;;;;;5032861;28;20474;-72
2023/05/31 10:53:36;;;;;;;10.10;2.80;;;;;;;;;;5033597;28;20425;-73
2023/05/31 10:56:06;;;;;;;9.35;3.28;;;;;;;;;;5033098;28;20036;-73
2023/05/31 10:58:38;;;;;;;15.98;3.97;;;;;;;;;;5033138;28;20082;-74
2023/05/31 11:01:08;;;;;;;10.18;3.10;;;;;;;;;;5032691;28;20488;-73
2023/05/31 11:03:35;;;;;;;7.25;2.10;;;;;;;;;;5031534;28;20419;-72
2023/05/31 11:06:03;;;;;;;13.80;3.50;;;;;;;;;;5032543;28;20079;-72
2023/05/31 11:08:29;;;;;;;15.88;3.30;;;;;;;;;;5032581;28;20361;-73
2023/05/31 11:11:14;;;;;;;11.73;3.15;;;;;;;;;;5032160;28;20029;-73
2023/05/31 11:13:57;;;;;;;10.38;2.83;;;;;;;;;;5032576;28;20021;-72
2023/05/31 11:16:23;;;;;;;14.82;4.95;;;;;;;;;;5032494;28;20049;-72
2023/05/31 11:19:01;;;;;;;11.18;3.63;;;;;;;;;;5032682;28;20045;-72
2023/05/31 11:21:45;;;;;;;13.40;3.40;;;;;;;;;;5032644;28;20097;-72
2023/05/31 11:24:25;;;;;;;14.30;3.03;;;;;;;;;;5032833;28;20030;-72
2023/05/31 11:26:54;;;;;;;14.32;3.90;;;;;;;;;;5032455;28;20037;-72
2023/05/31 11:29:20;;;;;;;13.45;4.82;;;;;;;;;;5032207;28;20053;-72
2023/05/31 11:31:49;;;;;;;11.60;3.75;;;;;;;;;;5031601;28;20096;-72
2023/05/31 11:34:24;;;;;;;15.02;4.03;;;;;;;;;;5032055;28;20067;-71
2023/05/31 11:36:50;;;;;;;15.02;4.15;;;;;;;;;;5032145;28;20056;-72
2023/05/31 11:39:20;;;;;;;13.43;3.60;;;;;;;;;;5032153;28;20108;-72
2023/05/31 11:41:46;;;;;;;10.35;3.17;;;;;;;;;;5032026;28;20390;-72
2023/05/31 11:44:13;;;;;;;17.45;3.38;;;;;;;;;;5032434;28;20316;-72
2023/05/31 11:46:40;;;;;;;13.65;3.50;;;;;;;;;;5032596;28;20391;-73
2023/05/31 11:49:09;;;;;;;7.90;2.90;;;;;;;;;;5032077;28;20033;-73
2023/05/31 11:51:36;;;;;;;9.43;2.67;;;;;;;;;;5032319;28;20021;-74
2023/05/31 11:54:03;;;;;;;10.77;3.40;;;;;;;;;;5031652;28;20033;-72
2023/05/31 11:56:38;;;;;;;12.38;2.83;;;;;;;;;;5031876;28;20160;-73
2023/05/31 11:59:04;;;;;;;17.42;4.22;;;;;;;;;;5031566;28;20041;-73
2023/05/31 12:01:37;;;;;;;13.90;3.65;;;;;;;;;;5031643;28;20021;-72
2023/05/31 12:04:03;;;;;;;18.50;3.40;;;;;;;;;;5031515;28;20036;-73
2023/05/31 12:06:29;;;;;;;12.85;2.85;;;;;;;;;;5031690;28;20028;-73
2023/05/31 12:08:55;;;;;;;14.23;2.85;;;;;;;;;;5030800;28;20028;-74
2023/05/31 12:11:21;;;;;;;8.07;2.70;;;;;;;;;;5033261;28;20021;-73
2023/05/31 12:13:48;;;;;;;11.88;3.13;;;;;;;;;;5032488;28;20041;-73
2023/05/31 12:16:14;;;;;;;9.38;3.00;;;;;;;;;;5033181;28;20101;-73
2023/05/31 12:18:40;;;;;;;10.60;3.22;;;;;;;;;;5033536;28;20040;-72
2023/05/31 12:21:11;;;;;;;16.20;2.80;;;;;;;;;;5033712;28;20029;-72
2023/05/31 12:23:57;;;;;;;12.02;2.22;;;;;;;;;;5032620;28;20029;-72
2023/05/31 12:26:26;;;;;;;9.93;2.20;;;;;;;;;;5032302;28;20497;-72
2023/05/31 12:28:52;;;;;;;12.07;2.25;;;;;;;;;;5031328;28;20060;-72
2023/05/31 12:31:25;;;;;;;10.63;2.38;;;;;;;;;;5031742;28;20082;-73
2023/05/31 12:34:01;;;;;;;11.70;2.65;;;;;;;;;;5032259;28;20021;-72
2023/05/31 12:36:28;;;;;;;8.88;2.53;;;;;;;;;;5032351;28;20479;-72
2023/05/31 12:38:54;;;;;;;9.95;2.10;;;;;;;;;;5031884;28;20552;-73
2023/05/31 12:41:22;;;;;;;7.57;1.80;;;;;;;;;;5031664;28;20444;-73
2023/05/31 12:43:48;;;;;;;5.60;2.25;;;;;;;;;;5031117;28;20368;-72
2023/05/31 12:46:18;;;;;;;12.05;2.17;;;;;;;;;;5031484;28;20025;-73
2023/05/31 12:48:50;;;;;;;11.43;2.88;;;;;;;;;;5031321;28;20036;-73
2023/05/31 12:51:23;;;;;;;9.15;2.67;;;;;;;;;;5035243;28;20489;-74
2023/05/31 12:53:50;;;;;;;6.00;2.00;;;;;;;;;;5035859;28;20100;-73
2023/05/31 12:56:16;;;;;;;5.50;1.80;;;;;;;;;;5032437;28;20025;-72
2023/05/31 12:58:42;;;;;;;11.15;1.83;;;;;;;;;;5035243;28;20030;-73
2023/05/31 13:01:09;;;;;;;10.65;2.30;;;;;;;;;;5031105;28;20521;-73
2023/05/31 13:03:35;;;;;;;15.75;1.80;;;;;;;;;;5031132;28;20495;-73
2023/05/31 13:06:04;;;;;;;6.13;2.10;;;;;;;;;;5031701;28;20040;-72
2023/05/31 13:08:30;;;;;;;10.68;2.25;;;;;;;;;;5031456;28;20586;-73
2023/05/31 13:10:56;;;;;;;12.02;4.00;;;;;;;;;;5031196;28;20037;-73
2023/05/31 13:13:22;;;;;;;8.70;2.10;;;;;;;;;;5031204;28;20045;-72
2023/05/31 13:15:48;;;;;;;7.65;2.13;;;;;;;;;;5031283;28;20036;-73
2023/05/31 13:18:14;;;;;;;12.27;2.13;;;;;;;;;;5031798;28;20109;-73
2023/05/31 13:20:40;;;;;;;6.50;2.30;;;;;;;;;;5031351;28;20516;-73
2023/05/31 13:23:08;;;;;;;9.95;2.08;;;;;;;;;;5033272;28;20057;-72
2023/05/31 13:25:34;;;;;;;9.85;2.30;;;;;;;;;;5034141;28;20033;-72
2023/05/31 13:28:00;;;;;;;11.35;2.45;;;;;;;;;;5036859;28;20029;-73
2023/05/31 13:30:27;;;;;;;6.47;1.73;;;;;;;;;;5038916;28;20025;-73
2023/05/31 13:32:53;;;;;;;13.25;2.25;;;;;;;;;;5036740;28;20037;-72
2023/05/31 13:35:19;;;;;;;11.02;2.30;;;;;;;;;;5034942;28;20351;-73
2023/05/31 13:37:45;;;;;;;12.65;2.08;;;;;;;;;;5034362;28;20021;-72
2023/05/31 13:40:11;;;;;;;6.57;2.22;;;;;;;;;;5034078;28;20022;-73
2023/05/31 13:42:37;;;;;;;10.35;2.20;;;;;;;;;;5034162;28;20093;-73
2023/05/31 13:45:04;;;;;;;11.60;2.38;;;;;;;;;;5034224;28;20021;-72
2023/05/31 13:47:30;;;;;;;13.13;2.25;;;;;;;;;;5034080;28;20048;-72
2023/05/31 13:49:56;;;;;;;9.43;2.15;;;;;;;;;;5034018;28;20032;-73
2023/05/31 13:52:22;;;;;;;9.00;2.20;;;;;;;;;;5034139;28;20032;-73
2023/05/31 13:54:48;;;;;;;14.60;2.88;;;;;;;;;;5035247;28;20108;-76
2023/05/31 13:57:14;;;;;;;11.90;2.10;;;;;;;;;;5034070;28;20065;-74
2023/05/31 13:59:41;;;;;;;10.10;2.47;;;;;;;;;;5033680;28;20082;-76
2023/05/31 14:02:07;;;;;;;8.27;2.10;;;;;;;;;;5034228;28;20152;-74
2023/05/31 14:04:33;;;;;;;7.70;2.03;;;;;;;;;;5034307;28;20056;-75
2023/05/31 14:06:59;;;;;;;8.32;2.15;;;;;;;;;;5034437;28;20017;-73
2023/05/31 14:09:26;;;;;;;11.82;2.25;;;;;;;;;;5034339;28;20072;-73
2023/05/31 14:11:52;;;;;;;14.35;2.67;;;;;;;;;;5032387;28;20235;-72
2023/05/31 14:14:18;;;;;;;9.43;2.15;;;;;;;;;;5033754;28;20041;-73
2023/05/31 14:16:44;;;;;;;9.70;2.35;;;;;;;;;;5033526;28;20112;-72
2023/05/31 14:19:10;;;;;;;9.52;2.70;;;;;;;;;;5033506;28;20105;-73
2023/05/31 14:21:36;;;;;;;12.18;3.22;;;;;;;;;;5033489;28;20451;-73
2023/05/31 14:24:03;;;;;;;10.38;3.03;;;;;;;;;;5033102;28;20037;-73
2023/05/31 14:26:29;;;;;;;8.85;2.40;;;;;;;;;;5031603;28;20104;-74
2023/05/31 14:28:55;;;;;;;10.52;3.13;;;;;;;;;;5005664;28;20053;-71
2023/05/31 14:31:22;;;;;;;14.30;3.22;;;;;;;;;;5012429;28;20380;-73